createdAt,value
2023-02-24T00:02:07.209Z,99.99
2023-02-24T00:05:15.117Z,99.99
2023-02-24T00:08:23.080Z,99.99
2023-02-24T00:11:31.186Z,99.99
2023-02-24T00:14:38.898Z,99.99
2023-02-24T00:17:46.785Z,99.99
2023-02-24T00:20:55.050Z,99.99
2023-02-24T00:24:02.777Z,99.99
2023-02-24T00:27:10.894Z,99.98
2023-02-24T00:30:19.373Z,99.87
2023-02-24T00:33:26.968Z,99.99
2023-02-24T00:36:35.327Z,99.61
2023-02-24T00:39:43.871Z,99.40
2023-02-24T00:42:51.532Z,99.40
2023-02-24T00:45:59.687Z,99.51
2023-02-24T00:49:07.996Z,99.40
2023-02-24T00:52:15.776Z,99.30
2023-02-24T00:55:24.326Z,99.30
2023-02-24T00:58:31.931Z,99.61
2023-02-24T01:01:39.790Z,99.61
2023-02-24T01:04:47.681Z,99.71
2023-02-24T01:07:55.516Z,99.92
2023-02-24T01:11:03.906Z,99.76
2023-02-24T01:14:11.931Z,99.65
2023-02-24T01:17:19.684Z,99.86
2023-02-24T01:20:27.885Z,99.91
2023-02-24T01:23:35.216Z,99.70
2023-02-24T01:26:43.409Z,99.70
2023-02-24T01:29:51.537Z,99.91
2023-02-24T01:32:59.361Z,99.99
2023-02-24T01:36:08.145Z,99.99
2023-02-24T01:39:16.031Z,99.99
2023-02-24T01:42:23.977Z,99.99
2023-02-24T01:45:32.133Z,99.99
2023-02-24T01:48:40.118Z,99.99
2023-02-24T01:51:47.896Z,99.99
2023-02-24T01:54:55.776Z,99.99
2023-02-24T01:58:03.736Z,99.99
2023-02-24T02:01:11.491Z,99.99
2023-02-24T02:04:18.560Z,99.99
2023-02-24T02:07:26.682Z,99.99
2023-02-24T02:10:34.289Z,99.99
2023-02-24T02:13:41.965Z,99.99
2023-02-24T02:16:49.547Z,99.99
2023-02-24T02:19:56.676Z,99.99
2023-02-24T02:23:04.170Z,99.99
2023-02-24T02:26:11.856Z,99.99
2023-02-24T02:29:19.056Z,99.99
2023-02-24T02:32:27.189Z,99.99
2023-02-24T02:35:34.842Z,99.99
2023-02-24T02:38:42.046Z,99.99
2023-02-24T02:41:49.726Z,99.99
2023-02-24T02:44:58.101Z,99.99
2023-02-24T02:48:05.422Z,99.99
2023-02-24T02:51:12.964Z,99.99
2023-02-24T02:54:20.393Z,99.99
2023-02-24T02:57:28.234Z,99.99
2023-02-24T03:00:35.539Z,99.99
2023-02-24T03:03:42.936Z,99.99
2023-02-24T03:06:50.789Z,99.99
2023-02-24T03:09:58.063Z,99.99
2023-02-24T03:13:05.766Z,99.86
2023-02-24T03:16:13.205Z,99.65
2023-02-24T03:19:20.306Z,99.24
2023-02-24T03:22:27.845Z,98.93
2023-02-24T03:25:35.447Z,98.82
2023-02-24T03:28:42.708Z,99.13
2023-02-24T03:31:50.440Z,99.03
2023-02-24T03:34:57.948Z,99.03
2023-02-24T03:38:05.329Z,99.13
2023-02-24T03:41:12.719Z,99.24
2023-02-24T03:44:20.626Z,99.24
2023-02-24T03:47:28.178Z,99.34
2023-02-24T03:50:36.143Z,99.24
2023-02-24T03:53:43.897Z,99.18
2023-02-24T03:56:50.832Z,98.97
2023-02-24T03:59:58.442Z,98.55
2023-02-24T04:03:06.211Z,98.24
2023-02-24T04:06:13.231Z,98.14
2023-02-24T04:09:21.162Z,98.03
2023-02-24T04:12:29.499Z,98.35
2023-02-24T04:15:36.502Z,98.35
2023-02-24T04:18:44.152Z,98.14
2023-02-24T04:21:51.686Z,97.93
2023-02-24T04:24:59.066Z,97.93
2023-02-24T04:28:06.960Z,97.41
2023-02-24T04:31:14.713Z,97.62
2023-02-24T04:34:22.106Z,97.72
2023-02-24T04:37:29.637Z,97.41
2023-02-24T04:40:37.248Z,97.20
2023-02-24T04:43:44.303Z,97.52
2023-02-24T04:46:51.620Z,97.20
2023-02-24T04:49:59.312Z,96.06
2023-02-24T04:53:06.697Z,95.28
2023-02-24T04:56:14.230Z,95.03
2023-02-24T04:59:22.644Z,94.03
2023-02-24T05:02:29.625Z,92.57
2023-02-24T05:05:37.551Z,92.68
2023-02-24T05:08:45.445Z,91.02
2023-02-24T05:11:52.588Z,89.15
2023-02-24T05:15:00.241Z,87.38
2023-02-24T05:18:07.705Z,87.38
2023-02-24T05:21:15.126Z,86.59
2023-02-24T05:24:22.989Z,87.73
2023-02-24T05:27:30.279Z,86.59
2023-02-24T05:30:37.837Z,86.69
2023-02-24T05:33:45.747Z,85.86
2023-02-24T05:36:53.309Z,86.80
2023-02-24T05:40:00.995Z,86.59
2023-02-24T05:43:08.085Z,87.42
2023-02-24T05:46:16.045Z,88.56
2023-02-24T06:02:48.938Z,85.86
2023-02-24T06:05:56.185Z,85.75
2023-02-24T06:09:03.701Z,84.82
2023-02-24T06:12:11.067Z,85.34
2023-02-24T06:15:18.075Z,83.99
2023-02-24T06:18:25.140Z,82.84
2023-02-24T06:21:32.592Z,83.37
2023-02-24T06:24:39.615Z,83.68
2023-02-24T06:27:47.190Z,83.58
2023-02-24T06:30:54.649Z,83.47
2023-02-24T06:34:02.356Z,83.16
2023-02-24T06:37:09.694Z,83.89
2023-02-24T06:40:17.045Z,83.16
2023-02-24T06:43:24.187Z,84.51
2023-02-24T06:46:32.125Z,84.82
2023-02-24T06:49:39.513Z,85.34
2023-02-24T06:52:47.024Z,85.96
2023-02-24T06:55:54.744Z,85.96
2023-02-24T06:59:02.222Z,85.96
2023-02-24T07:02:09.397Z,85.86
2023-02-24T07:05:17.065Z,84.99
2023-02-24T07:08:24.654Z,83.95
2023-02-24T07:11:32.112Z,85.10
2023-02-24T07:14:39.827Z,84.16
2023-02-24T07:17:48.495Z,83.64
2023-02-24T07:20:55.885Z,84.47
2023-02-24T07:24:03.727Z,84.47
2023-02-24T07:27:11.104Z,84.27
2023-02-24T07:30:18.233Z,84.05
2023-02-24T07:33:25.557Z,83.43
2023-02-24T07:36:33.194Z,84.05
2023-02-24T07:39:40.578Z,83.64
2023-02-24T07:42:48.137Z,84.05
2023-02-24T07:45:56.111Z,84.01
2023-02-24T07:49:03.320Z,84.33
2023-02-24T07:52:10.643Z,84.43
2023-02-24T07:55:18.289Z,83.18
2023-02-24T07:58:25.373Z,82.56
2023-02-24T08:01:33.713Z,82.35
2023-02-24T08:04:41.309Z,82.56
2023-02-24T08:07:48.325Z,82.46
2023-02-24T08:10:55.916Z,83.18
2023-02-24T08:14:03.476Z,83.29
2023-02-24T08:17:10.798Z,82.77
2023-02-24T08:20:18.549Z,83.29
2023-02-24T08:23:26.021Z,81.73
2023-02-24T08:26:33.555Z,83.08
2023-02-24T08:29:41.021Z,82.67
2023-02-24T08:32:48.322Z,82.04
2023-02-24T08:35:55.759Z,83.46
2023-02-24T08:39:02.820Z,82.94
2023-02-24T08:42:10.370Z,82.32
2023-02-24T08:45:18.077Z,82.11
2023-02-24T08:48:25.045Z,82.84
2023-02-24T08:51:32.788Z,82.94
2023-02-24T08:54:40.653Z,82.94
2023-02-24T08:57:47.849Z,82.32
2023-02-24T09:00:55.532Z,80.87
2023-02-24T09:04:02.912Z,81.38
2023-02-24T09:07:11.925Z,82.21
2023-02-24T09:10:19.902Z,81.18
2023-02-24T09:13:27.458Z,81.59
2023-02-24T09:16:34.881Z,81.59
2023-02-24T09:19:42.565Z,80.97
2023-02-24T09:22:50.094Z,81.49
2023-02-24T09:25:57.527Z,81.18
2023-02-24T09:29:05.059Z,81.70
2023-02-24T09:32:12.872Z,81.07
2023-02-24T09:35:19.906Z,82.32
2023-02-24T09:38:28.125Z,82.94
2023-02-24T09:41:36.172Z,84.91
2023-02-24T09:44:43.387Z,85.12
2023-02-24T09:47:51.066Z,86.09
2023-02-24T09:51:03.708Z,87.45
2023-02-24T09:54:01.356Z,89.67
2023-02-24T09:57:08.911Z,90.97
2023-02-24T10:00:16.510Z,91.70
2023-02-24T10:03:23.712Z,91.43
2023-02-24T10:06:31.351Z,92.78
2023-02-24T10:09:38.912Z,93.87
2023-02-24T10:12:46.472Z,94.49
2023-02-24T10:15:57.245Z,95.15
2023-02-24T10:18:54.602Z,96.09
2023-02-24T10:22:01.729Z,96.78
2023-02-24T10:25:09.641Z,97.30
2023-02-24T10:28:17.690Z,97.50
2023-02-24T10:31:26.126Z,97.75
2023-02-24T10:34:34.591Z,98.17
2023-02-24T10:37:42.634Z,98.59
2023-02-24T10:40:49.851Z,98.85
2023-02-24T10:43:57.596Z,99.06
2023-02-24T10:47:04.922Z,99.16
2023-02-24T10:50:12.902Z,99.22
2023-02-24T10:53:20.403Z,99.16
2023-02-24T10:56:30.060Z,99.27
2023-02-24T10:59:37.853Z,99.16
2023-02-24T11:02:45.141Z,99.27
2023-02-24T11:05:53.262Z,99.27
2023-02-24T11:09:00.946Z,99.58
2023-02-24T11:12:07.797Z,99.99
2023-02-24T11:15:15.537Z,99.68
2023-02-24T11:18:23.805Z,99.90
2023-02-24T11:21:31.082Z,99.99
2023-02-24T11:24:39.091Z,99.99
2023-02-24T11:27:46.418Z,99.99
2023-02-24T11:30:53.911Z,99.99
2023-02-24T11:34:01.701Z,99.99
2023-02-24T11:37:09.051Z,99.99
2023-02-24T11:40:16.773Z,99.99
2023-02-24T11:43:24.213Z,99.99
2023-02-24T11:46:32.004Z,99.99
2023-02-24T11:49:39.335Z,99.99
2023-02-24T11:52:46.561Z,99.99
2023-02-24T11:55:54.506Z,99.99
2023-02-24T11:59:01.739Z,99.99
2023-02-24T12:02:09.034Z,99.99
2023-02-24T12:05:17.214Z,99.99
2023-02-24T12:08:24.473Z,99.99
2023-02-24T12:11:32.078Z,99.99
2023-02-24T12:14:39.977Z,99.99
2023-02-24T12:17:47.054Z,99.99
2023-02-24T12:20:54.940Z,99.99
2023-02-24T12:24:02.721Z,99.99
2023-02-24T12:27:09.817Z,99.99
2023-02-24T12:30:17.764Z,99.99
2023-02-24T12:33:25.238Z,99.99
2023-02-24T12:36:32.416Z,99.99
2023-02-24T12:39:40.386Z,99.99
2023-02-24T12:42:47.801Z,99.99
2023-02-24T12:45:55.384Z,99.99
2023-02-24T12:49:02.860Z,99.99
2023-02-24T12:52:10.853Z,99.99
2023-02-24T12:55:18.297Z,99.99
2023-02-24T12:58:25.953Z,99.99
2023-02-24T13:01:33.865Z,99.99
2023-02-24T13:04:41.185Z,99.99
2023-02-24T13:07:48.362Z,99.99
2023-02-24T13:10:56.468Z,99.99
2023-02-24T13:14:04.546Z,99.99
2023-02-24T13:17:11.730Z,99.99
2023-02-24T13:20:20.002Z,99.99
2023-02-24T13:23:27.259Z,99.99
2023-02-24T13:26:35.156Z,99.99
2023-02-24T13:29:43.149Z,99.99
2023-02-24T13:32:50.272Z,99.99
2023-02-24T13:35:57.882Z,99.99
2023-02-24T13:39:05.304Z,99.99
2023-02-24T13:42:12.849Z,99.99
2023-02-24T13:45:20.617Z,99.99
2023-02-24T13:48:27.802Z,99.99
2023-02-24T13:51:35.199Z,99.99
2023-02-24T13:54:42.650Z,99.99
2023-02-24T13:57:49.943Z,99.99
2023-02-24T14:00:57.237Z,99.99
2023-02-24T14:04:04.645Z,99.99
2023-02-24T14:07:12.664Z,99.99
2023-02-24T14:10:19.965Z,99.99
2023-02-24T14:13:28.206Z,99.99
2023-02-24T14:16:36.298Z,99.99
2023-02-24T14:19:43.144Z,99.99
2023-02-24T14:22:51.042Z,99.99
2023-02-24T14:25:58.847Z,99.99
2023-02-24T14:29:05.849Z,99.99
2023-02-24T14:32:13.520Z,99.99
2023-02-24T14:35:20.980Z,99.99
2023-02-24T14:38:28.337Z,99.99
2023-02-24T14:41:36.013Z,99.99
2023-02-24T14:44:43.649Z,99.99
2023-02-24T14:47:51.074Z,99.99
2023-02-24T14:50:58.876Z,99.99
2023-02-24T14:54:06.239Z,99.99
2023-02-24T14:57:14.883Z,99.99
2023-02-24T15:00:22.027Z,99.99
2023-02-24T15:03:29.470Z,99.99
2023-02-24T15:06:36.897Z,99.99
2023-02-24T15:09:44.006Z,99.99
2023-02-24T15:12:51.656Z,99.99
2023-02-24T15:15:59.634Z,99.99
2023-02-24T15:19:06.643Z,99.99
2023-02-24T15:22:14.427Z,99.99
2023-02-24T15:25:28.107Z,99.99
2023-02-24T15:28:26.515Z,99.99
2023-02-24T15:31:34.318Z,99.99
2023-02-24T15:34:41.679Z,99.99
2023-02-24T15:37:49.221Z,99.99
2023-02-24T15:40:56.291Z,99.99
2023-02-24T15:44:04.107Z,99.99
2023-02-24T15:47:11.668Z,99.99
2023-02-24T15:50:18.941Z,99.99
2023-02-24T15:53:26.670Z,99.99
2023-02-24T15:56:33.874Z,99.99
2023-02-24T15:59:41.546Z,99.99
2023-02-24T16:02:49.097Z,99.99
2023-02-24T16:05:56.271Z,99.99
2023-02-24T16:09:03.619Z,99.99
2023-02-24T16:12:11.310Z,99.99
2023-02-24T16:15:18.275Z,99.99
2023-02-24T16:18:25.641Z,99.99
2023-02-24T16:21:33.337Z,99.99
2023-02-24T16:24:40.633Z,99.99
2023-02-24T16:27:48.046Z,99.99
2023-02-24T16:30:55.296Z,99.99
2023-02-24T16:34:03.350Z,99.99
2023-02-24T16:37:10.837Z,99.99
2023-02-24T16:40:18.099Z,99.99
2023-02-24T16:43:26.012Z,99.99
2023-02-24T16:46:33.427Z,99.99
2023-02-24T16:49:40.860Z,99.99
2023-02-24T16:52:48.726Z,99.99
2023-02-24T16:55:55.802Z,99.99
2023-02-24T16:59:03.388Z,99.99
2023-02-24T17:02:11.323Z,99.99
2023-02-24T17:05:18.437Z,99.99
2023-02-24T17:08:25.817Z,99.99
2023-02-24T17:11:33.593Z,99.99
2023-02-24T17:14:40.974Z,99.99
2023-02-24T17:17:48.739Z,99.99
2023-02-24T17:20:56.129Z,99.99
2023-02-24T17:24:03.501Z,99.99
2023-02-24T17:27:11.587Z,99.99
2023-02-24T17:30:18.927Z,99.99
2023-02-24T17:33:26.502Z,99.99
2023-02-24T17:36:34.052Z,99.99
2023-02-24T17:39:41.418Z,99.99
2023-02-24T17:42:48.903Z,99.99
2023-02-24T17:45:56.656Z,99.99
2023-02-24T17:49:04.263Z,99.99
2023-02-24T17:52:12.504Z,99.99
2023-02-24T17:55:19.817Z,99.99
2023-02-24T17:58:27.513Z,99.99
2023-02-24T18:01:34.939Z,99.99
2023-02-24T18:04:42.679Z,99.99
2023-02-24T18:07:50.617Z,99.99
2023-02-24T18:10:57.834Z,99.99
2023-02-24T18:14:05.812Z,99.99
2023-02-24T18:17:13.403Z,99.99
2023-02-24T18:20:20.901Z,99.99
2023-02-24T18:23:28.110Z,99.99
2023-02-24T18:26:35.820Z,99.99
2023-02-24T18:29:43.491Z,99.99
2023-02-24T18:32:51.590Z,99.99
2023-02-24T18:35:59.210Z,99.99
2023-02-24T18:39:06.736Z,99.99
2023-02-24T18:42:14.256Z,99.99
2023-02-24T18:45:21.630Z,99.99
2023-02-24T18:48:29.504Z,99.99
2023-02-24T18:51:37.761Z,99.99
2023-02-24T18:54:45.043Z,99.99
2023-02-24T18:57:52.959Z,99.99
2023-02-24T19:01:00.190Z,99.99
2023-02-24T19:04:07.424Z,99.99
2023-02-24T19:07:15.312Z,99.99
2023-02-24T19:10:22.773Z,99.99
2023-02-24T19:13:30.133Z,99.99
2023-02-24T19:16:38.098Z,99.99
2023-02-24T19:19:45.056Z,99.99
2023-02-24T19:22:52.659Z,99.99
2023-02-24T19:26:00.357Z,99.99
2023-02-24T19:29:07.777Z,99.99
2023-02-24T19:32:15.421Z,99.99
2023-02-24T19:35:22.704Z,99.99
2023-02-24T19:38:29.758Z,99.99
2023-02-24T19:41:37.659Z,99.99
2023-02-24T19:44:44.796Z,99.99
2023-02-24T19:47:52.515Z,99.99
2023-02-24T19:50:59.999Z,99.99
2023-02-24T19:54:07.721Z,99.99
2023-02-24T19:57:15.619Z,99.99
2023-02-24T20:00:22.668Z,99.99
2023-02-24T20:03:30.363Z,99.99
2023-02-24T20:06:38.104Z,99.99
2023-02-24T20:09:45.332Z,99.99
2023-02-24T20:12:52.830Z,99.99
2023-02-24T20:16:00.496Z,99.99
2023-02-24T20:19:07.635Z,99.99
2023-02-24T20:22:15.479Z,99.99
2023-02-24T20:25:22.792Z,99.99
2023-02-24T20:28:29.751Z,99.99
2023-02-24T20:31:37.663Z,99.99
2023-02-24T20:34:45.552Z,99.99
2023-02-24T20:37:52.356Z,99.99
2023-02-24T20:41:00.573Z,99.99
2023-02-24T20:44:07.892Z,99.99
2023-02-24T20:47:17.075Z,99.99
2023-02-24T20:50:25.529Z,99.99
2023-02-24T20:53:32.884Z,99.99
2023-02-24T20:56:40.510Z,99.99
2023-02-24T21:00:02.511Z,99.99
2023-02-24T21:02:52.709Z,99.99
2023-02-24T21:06:09.539Z,99.99
2023-02-24T21:09:05.165Z,99.99
2023-02-24T21:12:12.640Z,99.99
2023-02-24T21:15:20.638Z,99.99
2023-02-24T21:18:28.284Z,99.99
2023-02-24T21:21:36.302Z,99.99
2023-02-24T21:24:44.054Z,99.99
2023-02-24T21:27:51.169Z,99.99
2023-02-24T21:30:59.102Z,99.99
2023-02-24T21:34:06.487Z,99.99
2023-02-24T21:37:13.813Z,99.99
2023-02-24T21:40:21.310Z,99.99
2023-02-24T21:43:28.391Z,99.99
2023-02-24T21:46:35.952Z,99.99
2023-02-24T21:49:43.774Z,99.99
2023-02-24T21:52:50.791Z,99.99
2023-02-24T21:55:58.356Z,99.99
2023-02-24T21:59:05.635Z,99.99
2023-02-24T22:02:12.664Z,99.99
2023-02-24T22:05:20.476Z,99.99
2023-02-24T22:08:27.983Z,99.99
2023-02-24T22:11:35.354Z,99.99
2023-02-24T22:14:43.205Z,99.99
2023-02-24T22:17:50.678Z,99.99
2023-02-24T22:20:57.946Z,99.82
2023-02-24T22:24:05.718Z,99.82
2023-02-24T22:27:13.139Z,99.71
2023-02-24T22:30:20.732Z,99.82
2023-02-24T22:33:28.142Z,99.92
2023-02-24T22:36:35.923Z,99.92
2023-02-24T22:39:43.404Z,99.92
2023-02-24T22:42:50.707Z,99.82
2023-02-24T22:45:58.355Z,99.96
2023-02-24T22:49:05.326Z,99.86
2023-02-24T22:52:12.620Z,99.86
2023-02-24T22:55:20.357Z,99.76
2023-02-24T22:58:27.660Z,99.65
2023-02-24T23:01:34.802Z,99.55
2023-02-24T23:04:42.439Z,99.65
2023-02-24T23:07:49.539Z,99.34
2023-02-24T23:10:57.307Z,99.13
2023-02-24T23:14:05.172Z,99.34
2023-02-24T23:17:12.156Z,99.34
2023-02-24T23:20:19.774Z,98.93
2023-02-24T23:23:27.556Z,99.13
2023-02-24T23:26:34.530Z,99.13
2023-02-24T23:29:42.292Z,99.13
2023-02-24T23:32:49.774Z,99.13
2023-02-24T23:35:57.483Z,99.13
2023-02-24T23:39:04.552Z,99.13
2023-02-24T23:42:11.937Z,99.24
2023-02-24T23:45:19.438Z,99.44
2023-02-24T23:48:26.845Z,99.55
2023-02-24T23:51:49.344Z,99.65
2023-02-24T23:54:38.830Z,99.99
2023-02-24T23:57:46.200Z,99.99
